createdAt,value
2023-04-21T00:00:10.337Z,8.19
2023-04-21T00:05:02.295Z,8.20
2023-04-21T00:09:54.070Z,8.22
2023-04-21T00:14:45.717Z,8.15
2023-04-21T00:19:37.316Z,8.14
2023-04-21T00:24:29.030Z,8.12
2023-04-21T00:29:20.760Z,8.06
2023-04-21T00:34:12.465Z,8.01
2023-04-21T00:39:04.110Z,7.97
2023-04-21T00:44:07.281Z,7.92
2023-04-21T00:48:59.144Z,7.83
2023-04-21T00:53:51.654Z,7.83
2023-04-21T00:58:45.682Z,7.81
2023-04-21T01:03:37.603Z,7.81
2023-04-21T01:08:29.352Z,7.79
2023-04-21T01:13:23.835Z,7.74
2023-04-21T01:18:17.106Z,7.73
2023-04-21T01:23:08.691Z,7.70
2023-04-21T01:28:00.327Z,7.73
2023-04-21T01:32:52.247Z,7.73
2023-04-21T01:37:43.892Z,7.69
2023-04-21T01:42:39.435Z,7.67
2023-04-21T01:47:31.041Z,7.65
2023-04-21T01:52:22.698Z,7.66
2023-04-21T01:57:14.621Z,7.65
2023-04-21T02:02:06.797Z,7.60
2023-04-21T02:06:58.473Z,7.59
2023-04-21T02:11:50.200Z,7.59
2023-04-21T02:16:41.879Z,7.58
2023-04-21T02:21:33.742Z,7.55
2023-04-21T02:26:25.699Z,7.54
2023-04-21T02:31:18.937Z,7.51
2023-04-21T02:36:10.729Z,7.49
2023-04-21T02:41:02.337Z,7.48
2023-04-21T02:45:53.910Z,7.47
2023-04-21T02:50:45.496Z,7.47
2023-04-21T02:55:37.142Z,7.46
2023-04-21T03:00:28.734Z,7.45
2023-04-21T03:05:21.180Z,7.45
2023-04-21T03:10:12.834Z,7.45
2023-04-21T03:15:04.932Z,7.45
2023-04-21T03:19:56.562Z,7.43
2023-04-21T03:24:48.099Z,7.46
2023-04-21T03:29:39.725Z,7.43
2023-04-21T03:34:31.303Z,7.41
2023-04-21T03:39:23.114Z,7.40
2023-04-21T03:44:15.087Z,7.39
2023-04-21T03:49:06.721Z,7.38
2023-04-21T03:53:59.259Z,7.34
2023-04-21T03:58:50.867Z,7.35
2023-04-21T04:03:42.660Z,7.32
2023-04-21T04:08:34.447Z,7.31
2023-04-21T04:13:26.685Z,7.26
2023-04-21T04:18:18.269Z,7.27
2023-04-21T04:23:09.907Z,7.29
2023-04-21T04:28:01.491Z,7.23
2023-04-21T04:32:53.081Z,7.21
2023-04-21T04:37:45.599Z,7.21
2023-04-21T04:42:37.354Z,7.17
2023-04-21T04:47:29.670Z,7.16
2023-04-21T04:52:21.444Z,7.15
2023-04-21T04:57:13.188Z,7.19
2023-04-21T05:02:04.853Z,7.24
2023-04-21T05:06:56.536Z,7.26
2023-04-21T05:11:48.161Z,7.26
2023-04-21T05:16:39.992Z,7.30
2023-04-21T05:21:31.752Z,7.35
2023-04-21T05:26:24.325Z,7.38
2023-04-21T05:31:15.990Z,7.41
2023-04-21T05:36:09.437Z,7.46
2023-04-21T05:41:00.996Z,7.39
2023-04-21T05:45:52.934Z,7.40
2023-04-21T05:50:44.808Z,7.40
2023-04-21T05:55:37.351Z,7.44
2023-04-21T06:00:28.987Z,7.41
2023-04-21T06:05:20.811Z,7.39
2023-04-21T06:10:14.074Z,7.37
2023-04-21T06:15:06.382Z,7.37
2023-04-21T06:19:58.171Z,7.39
2023-04-21T06:24:49.844Z,7.45
2023-04-21T06:29:42.866Z,7.43
2023-04-21T06:34:34.590Z,7.41
2023-04-21T06:39:26.766Z,7.45
2023-04-21T06:44:19.228Z,7.46
2023-04-21T06:49:11.164Z,7.49
2023-04-21T06:54:03.116Z,7.53
2023-04-21T06:58:55.047Z,7.57
2023-04-21T07:03:46.917Z,7.58
2023-04-21T07:08:39.162Z,7.60
2023-04-21T07:13:30.738Z,7.62
2023-04-21T07:18:22.307Z,7.65
2023-04-21T07:23:13.986Z,7.72
2023-04-21T07:28:05.878Z,7.75
2023-04-21T07:32:57.707Z,7.80
2023-04-21T07:37:49.561Z,7.89
2023-04-21T07:42:41.335Z,7.94
2023-04-21T07:47:33.412Z,7.95
2023-04-21T07:52:25.045Z,7.96
2023-04-21T07:57:16.807Z,8.04
2023-04-21T08:02:08.683Z,8.09
2023-04-21T08:07:00.558Z,8.12
2023-04-21T08:11:52.279Z,8.11
2023-04-21T08:16:44.133Z,8.12
2023-04-21T08:21:36.488Z,8.11
2023-04-21T08:26:30.186Z,8.16
2023-04-21T08:31:22.017Z,8.17
2023-04-21T08:36:26.112Z,8.19
2023-04-21T08:41:20.787Z,8.19
2023-04-21T08:46:12.631Z,8.27
2023-04-21T08:51:06.810Z,8.25
2023-04-21T08:56:09.955Z,8.28
2023-04-21T09:01:02.747Z,8.31
2023-04-21T09:06:05.722Z,8.33
2023-04-21T09:10:58.767Z,8.35
2023-04-21T09:15:54.417Z,8.37
2023-04-21T09:20:48.086Z,8.38
2023-04-21T09:25:41.380Z,8.39
2023-04-21T09:30:36.364Z,8.42
2023-04-21T09:35:29.237Z,8.42
2023-04-21T09:40:20.937Z,8.41
2023-04-21T09:50:12.689Z,8.44
2023-04-21T09:55:12.025Z,8.44
2023-04-21T10:00:13.807Z,8.44
2023-04-21T10:05:07.287Z,8.51
2023-04-21T10:10:01.043Z,8.57
2023-04-21T10:14:53.721Z,8.67
2023-04-21T10:19:51.169Z,8.75
2023-04-21T10:24:43.326Z,8.85
2023-04-21T10:34:30.427Z,9.07
2023-04-21T10:39:31.418Z,9.12
2023-04-21T10:44:23.105Z,9.20
2023-04-21T10:49:25.652Z,9.23
2023-04-21T10:54:17.418Z,9.28
2023-04-21T10:59:09.123Z,9.31
2023-04-21T11:04:01.419Z,9.35
2023-04-21T11:08:59.568Z,9.39
2023-04-21T11:13:53.044Z,9.35
2023-04-21T11:18:45.312Z,9.39
2023-04-21T11:23:41.360Z,9.36
2023-04-21T11:28:32.928Z,9.30
2023-04-21T11:33:24.753Z,9.23
2023-04-21T11:38:18.687Z,9.24
2023-04-21T11:43:10.352Z,9.36
2023-04-21T11:48:18.022Z,9.44
2023-04-21T11:53:09.747Z,9.45
2023-04-21T11:58:03.469Z,9.48
2023-04-21T12:02:57.009Z,9.74
2023-04-21T12:07:49.057Z,9.99
2023-04-21T12:12:42.241Z,10.21
2023-04-21T12:17:40.355Z,10.29
2023-04-21T12:22:31.899Z,10.32
2023-04-21T12:27:23.572Z,10.34
2023-04-21T12:32:15.933Z,10.56
2023-04-21T12:37:07.860Z,10.69
2023-04-21T12:41:59.784Z,11.00
2023-04-21T12:46:52.340Z,11.21
2023-04-21T12:51:44.595Z,11.16
2023-04-21T12:56:36.632Z,11.21
2023-04-21T13:01:28.245Z,11.46
2023-04-21T13:06:20.139Z,11.53
2023-04-21T13:11:11.738Z,11.72
2023-04-21T13:16:03.658Z,11.76
2023-04-21T13:20:55.287Z,11.92
2023-04-21T13:25:47.270Z,11.92
2023-04-21T13:30:38.895Z,11.79
2023-04-21T13:35:30.641Z,11.73
2023-04-21T13:40:22.229Z,11.65
2023-04-21T13:45:13.915Z,11.70
2023-04-21T13:50:06.246Z,11.71
2023-04-21T13:54:57.791Z,11.60
2023-04-21T13:59:50.105Z,11.42
2023-04-21T14:04:42.221Z,11.26
2023-04-21T14:09:34.842Z,11.26
2023-04-21T14:14:37.876Z,11.39
2023-04-21T14:19:32.477Z,11.52
2023-04-21T14:24:26.920Z,11.50
2023-04-21T14:29:18.518Z,11.51
2023-04-21T14:34:10.052Z,11.55
2023-04-21T14:39:01.697Z,11.74
2023-04-21T14:43:56.221Z,11.87
2023-04-21T14:48:47.919Z,11.91
2023-04-21T14:53:40.744Z,11.75
2023-04-21T14:58:32.555Z,11.61
2023-04-21T15:03:24.298Z,11.73
2023-04-21T15:08:18.323Z,11.82
2023-04-21T15:13:11.661Z,11.90
2023-04-21T15:18:03.355Z,11.82
2023-04-21T15:22:55.050Z,11.67
2023-04-21T15:27:46.804Z,11.57
2023-04-21T15:32:38.545Z,11.50
2023-04-21T15:37:30.235Z,11.45
2023-04-21T15:42:21.881Z,11.32
2023-04-21T15:47:15.190Z,11.19
2023-04-21T15:52:07.188Z,11.10
2023-04-21T15:56:58.834Z,11.11
2023-04-21T16:01:50.503Z,11.15
2023-04-21T16:06:42.203Z,11.29
2023-04-21T16:11:34.505Z,11.41
2023-04-21T16:16:26.171Z,11.52
2023-04-21T16:21:18.010Z,11.63
2023-04-21T16:26:09.837Z,11.71
2023-04-21T16:31:01.595Z,11.77
2023-04-21T16:35:54.233Z,11.86
2023-04-21T16:40:47.153Z,11.97
2023-04-21T16:45:38.896Z,11.96
2023-04-21T16:50:30.873Z,11.82
2023-04-21T16:55:22.453Z,11.79
2023-04-21T17:00:14.772Z,11.74
2023-04-21T17:05:06.524Z,11.69
2023-04-21T17:09:58.368Z,11.67
2023-04-21T17:14:50.127Z,11.74
2023-04-21T17:19:41.713Z,11.73
2023-04-21T17:24:44.945Z,11.63
2023-04-21T17:29:43.891Z,11.56
2023-04-21T17:34:35.823Z,11.44
2023-04-21T17:39:27.676Z,11.45
2023-04-21T17:44:19.268Z,11.35
2023-04-21T17:49:10.936Z,11.30
2023-04-21T17:54:03.530Z,11.24
2023-04-21T17:58:55.194Z,11.17
2023-04-21T18:03:47.059Z,11.14
2023-04-21T18:08:38.811Z,11.11
2023-04-21T18:13:30.536Z,11.06
2023-04-21T18:18:22.094Z,11.00
2023-04-21T18:23:13.859Z,10.99
2023-04-21T18:28:05.537Z,10.99
2023-04-21T18:32:57.275Z,10.96
2023-04-21T18:37:48.911Z,10.92
2023-04-21T18:42:41.313Z,10.86
2023-04-21T18:47:32.908Z,10.75
2023-04-21T18:52:24.628Z,10.68
2023-04-21T18:57:16.257Z,10.60
2023-04-21T19:02:12.933Z,10.53
2023-04-21T19:07:08.333Z,10.45
2023-04-21T19:11:59.933Z,10.39
2023-04-21T19:16:53.011Z,10.39
2023-04-21T19:21:44.771Z,10.38
2023-04-21T19:26:36.416Z,10.36
2023-04-21T19:31:28.105Z,10.35
2023-04-21T19:36:19.796Z,10.32
2023-04-21T19:41:11.416Z,10.28
2023-04-21T19:46:03.085Z,10.21
2023-04-21T19:50:54.693Z,10.17
2023-04-21T19:55:46.833Z,10.14
2023-04-21T20:00:38.478Z,10.09
2023-04-21T20:05:30.093Z,10.10
2023-04-21T20:10:22.105Z,10.08
2023-04-21T20:15:13.788Z,10.04
2023-04-21T20:20:06.898Z,9.94
2023-04-21T20:24:58.491Z,9.82
2023-04-21T20:29:50.169Z,9.73
2023-04-21T20:34:42.214Z,9.64
2023-04-21T20:39:33.858Z,9.54
2023-04-21T20:44:31.370Z,9.44
2023-04-21T20:49:23.123Z,9.35
2023-04-21T20:54:14.728Z,9.27
2023-04-21T20:59:06.478Z,9.21
2023-04-21T21:04:01.209Z,9.13
2023-04-21T21:08:53.171Z,9.06
2023-04-21T21:13:45.509Z,9.02
2023-04-21T21:18:37.151Z,8.92
2023-04-21T21:23:29.036Z,8.84
2023-04-21T21:28:20.623Z,8.72
2023-04-21T21:33:12.279Z,8.67
2023-04-21T21:38:04.056Z,8.63
2023-04-21T21:42:55.635Z,8.52
2023-04-21T21:47:47.279Z,8.47
2023-04-21T21:52:38.921Z,8.40
2023-04-21T21:57:30.719Z,8.34
2023-04-21T22:02:22.439Z,8.27
2023-04-21T22:07:14.142Z,8.22
2023-04-21T22:12:07.048Z,8.17
2023-04-21T22:16:59.052Z,8.11
2023-04-21T22:21:50.652Z,8.04
2023-04-21T22:26:44.471Z,7.99
2023-04-21T22:31:37.198Z,7.94
2023-04-21T22:36:28.886Z,7.85
2023-04-21T22:41:21.190Z,7.78
2023-04-21T22:46:12.946Z,7.74
2023-04-21T22:51:06.338Z,7.68
2023-04-21T22:55:57.914Z,7.61
2023-04-21T23:00:49.758Z,7.57
2023-04-21T23:05:41.670Z,7.53
2023-04-21T23:10:33.672Z,7.50
2023-04-21T23:15:26.888Z,7.44
2023-04-21T23:20:18.632Z,7.37
2023-04-21T23:25:10.676Z,7.33
2023-04-21T23:30:02.764Z,7.32
2023-04-21T23:34:54.498Z,7.25
2023-04-21T23:39:46.068Z,7.21
2023-04-21T23:44:37.709Z,7.15
2023-04-21T23:49:29.421Z,7.11
2023-04-21T23:54:21.434Z,7.06
2023-04-21T23:59:13.128Z,7.01
